Time;durP1;ratioP1;P1;durP2;ratioP2;P2;SDS_P1;SDS_P2;PMS_P1;PMS_P2;Temp;Humidity;BMP_temperature;BMP_pressure;BME280_temperature;BME280_humidity;BME280_pressure;Samples;Min_cycle;Max_cycle;Signal;HPM_P1;HPM_P2
2023/01/22 00:02:08;;;;;;;3.97;2.17;;;;;;;9.06;100.00;101994.63;5075511;28;20123;-77
2023/01/22 00:04:35;;;;;;;4.45;2.40;;;;;;;9.01;100.00;101995.88;5058706;28;20081;-77
2023/01/22 00:07:02;;;;;;;3.55;2.47;;;;;;;9.05;100.00;101995.59;5076654;28;20032;-77
2023/01/22 00:09:27;;;;;;;5.68;2.97;;;;;;;8.94;100.00;101988.50;5075609;28;20036;-77
2023/01/22 00:11:53;;;;;;;4.03;2.38;;;;;;;8.88;100.00;101964.91;5059075;28;20036;-77
2023/01/22 00:14:19;;;;;;;3.42;1.80;;;;;;;8.85;100.00;101963.34;5058609;28;20368;-77
2023/01/22 00:16:44;;;;;;;3.95;2.45;;;;;;;8.94;100.00;101977.75;5058723;28;20385;-77
2023/01/22 00:19:10;;;;;;;7.43;3.42;;;;;;;8.90;100.00;101969.16;5075238;28;20035;-76
2023/01/22 00:21:36;;;;;;;12.35;4.72;;;;;;;8.92;100.00;101964.50;5076484;28;20029;-77
2023/01/22 00:24:01;;;;;;;5.40;2.70;;;;;;;8.97;100.00;101956.91;5058587;28;20028;-76
2023/01/22 00:26:27;;;;;;;5.47;3.30;;;;;;;8.98;100.00;101960.44;5074971;28;20086;-76
2023/01/22 00:28:53;;;;;;;7.38;3.28;;;;;;;8.88;100.00;101946.97;5074917;28;20471;-77
2023/01/22 00:31:19;;;;;;;10.25;4.25;;;;;;;9.11;100.00;101973.59;5058502;28;20421;-77
2023/01/22 00:33:46;;;;;;;8.30;3.92;;;;;;;9.15;100.00;101975.84;5058501;28;20047;-77
2023/01/22 00:36:17;;;;;;;7.28;3.28;;;;;;;9.18;100.00;101972.06;5058625;28;20052;-76
2023/01/22 00:38:43;;;;;;;9.35;3.83;;;;;;;9.20;100.00;101978.97;5041891;28;20378;-77
2023/01/22 00:41:09;;;;;;;7.45;3.15;;;;;;;9.16;100.00;101976.72;5074624;28;20029;-76
2023/01/22 00:43:37;;;;;;;13.90;5.70;;;;;;;9.20;100.00;101973.63;5074904;28;20107;-76
2023/01/22 00:46:03;;;;;;;10.52;3.90;;;;;;;9.20;100.00;101972.78;5041984;28;20036;-77
2023/01/22 00:48:29;;;;;;;5.95;3.17;;;;;;;9.18;100.00;101969.38;5057897;28;20497;-77
2023/01/22 00:50:55;;;;;;;11.13;3.60;;;;;;;9.15;100.00;101958.91;5074777;28;20110;-76
2023/01/22 00:53:20;;;;;;;6.35;2.70;;;;;;;9.12;100.00;101951.97;5058226;28;20029;-76
2023/01/22 00:55:53;;;;;;;11.60;4.45;;;;;;;9.14;100.00;101958.06;5058024;28;20039;-76
2023/01/22 00:58:19;;;;;;;7.55;3.63;;;;;;;9.05;100.00;101942.81;5041146;28;20120;-76
2023/01/22 01:00:45;;;;;;;4.93;2.95;;;;;;;8.98;100.00;101949.69;5074510;28;20174;-77
2023/01/22 01:03:26;;;;;;;7.32;4.43;;;;;;;8.95;100.00;101947.28;5057740;28;20124;-76
2023/01/22 01:05:57;;;;;;;5.85;3.08;;;;;;;8.98;100.00;101936.28;5075293;28;20029;-76
2023/01/22 01:08:24;;;;;;;10.05;4.13;;;;;;;8.97;100.00;101948.84;5039958;28;20699;-76
2023/01/22 01:10:54;;;;;;;5.93;2.95;;;;;;;8.97;100.00;101951.53;5041238;28;20085;-76
2023/01/22 01:13:20;;;;;;;5.13;2.80;;;;;;;8.94;100.00;101941.06;5041086;28;20364;-76
2023/01/22 01:15:46;;;;;;;7.85;4.47;;;;;;;8.79;100.00;101921.81;5057472;28;20028;-76
2023/01/22 01:18:13;;;;;;;4.25;2.75;;;;;;;8.87;100.00;101939.91;5074421;28;20375;-76
2023/01/22 01:20:39;;;;;;;2.80;1.38;;;;;;;8.87;100.00;101933.72;5057512;28;20025;-76
2023/01/22 01:23:07;;;;;;;2.72;1.08;;;;;;;8.83;100.00;101932.28;5041109;28;20125;-76
2023/01/22 01:25:33;;;;;;;1.63;1.27;;;;;;;8.84;100.00;101925.91;5057187;28;20032;-76
2023/01/22 01:27:59;;;;;;;0.90;0.63;;;;;;;8.84;100.00;101932.16;5073792;28;20407;-75
2023/01/22 01:30:24;;;;;;;1.75;1.38;;;;;;;8.82;100.00;101919.84;5073961;28;20162;-75
2023/01/22 01:32:50;;;;;;;1.95;0.60;;;;;;;8.83;100.00;101917.03;5057452;28;20082;-75
2023/01/22 01:35:19;;;;;;;9.30;2.03;;;;;;;8.82;100.00;101915.34;5073385;28;20032;-75
2023/01/22 01:37:44;;;;;;;0.40;0.40;;;;;;;8.80;100.00;101901.22;5057634;28;20471;-75
2023/01/22 01:40:10;;;;;;;1.23;0.70;;;;;;;8.79;100.00;101913.78;5073882;28;20031;-75
2023/01/22 01:42:38;;;;;;;1.70;0.90;;;;;;;8.71;100.00;101902.03;5073701;28;20025;-75
2023/01/22 01:45:30;;;;;;;1.23;1.10;;;;;;;8.78;100.00;101909.38;5040294;28;20421;-74
2023/01/22 01:48:35;;;;;;;0.60;0.60;;;;;;;8.80;100.00;101894.00;5073632;28;20036;-75
2023/01/22 01:51:22;;;;;;;0.43;0.43;;;;;;;8.80;100.00;101883.28;5072930;28;20048;-74
2023/01/22 01:53:49;;;;;;;1.35;0.98;;;;;;;8.77;100.00;101877.34;5056957;28;20060;-75
2023/01/22 01:56:21;;;;;;;0.70;0.70;;;;;;;8.77;100.00;101886.25;5057199;28;20375;-74
2023/01/22 01:58:50;;;;;;;0.88;0.88;;;;;;;8.76;100.00;101884.56;5073150;28;20059;-75
2023/01/22 02:01:17;;;;;;;1.02;0.60;;;;;;;8.75;100.00;101868.59;5073391;28;20104;-74
2023/01/22 02:03:45;;;;;;;0.40;0.40;;;;;;;8.75;100.00;101865.91;5056702;28;20048;-75
2023/01/22 02:06:12;;;;;;;0.68;0.68;;;;;;;8.78;100.00;101873.69;5056515;28;20021;-75
2023/01/22 02:08:39;;;;;;;0.60;0.60;;;;;;;8.82;100.00;101887.69;5056559;28;20093;-75
2023/01/22 02:11:05;;;;;;;0.40;0.40;;;;;;;8.82;100.00;101874.25;5056253;28;20166;-75
2023/01/22 02:13:33;;;;;;;0.63;0.60;;;;;;;8.85;100.00;101868.63;5056868;28;20475;-75
2023/01/22 02:15:58;;;;;;;0.50;0.50;;;;;;;8.88;100.00;101874.56;5056211;28;20078;-75
2023/01/22 02:18:24;;;;;;;0.50;0.50;;;;;;;8.89;100.00;101876.25;5040198;28;20123;-75
2023/01/22 02:20:53;;;;;;;0.50;0.50;;;;;;;8.91;100.00;101887.69;5072460;28;20040;-75
2023/01/22 02:23:20;;;;;;;0.60;0.60;;;;;;;8.95;100.00;101888.28;5073144;28;20043;-75
2023/01/22 02:25:45;;;;;;;0.40;0.40;;;;;;;9.01;100.00;101898.44;5072687;28;20055;-76
2023/01/22 02:28:11;;;;;;;0.70;0.70;;;;;;;8.94;100.00;101886.56;5056353;28;20029;-74
2023/01/22 02:30:37;;;;;;;1.13;0.70;;;;;;;8.95;100.00;101885.59;5039736;28;20071;-74
2023/01/22 02:33:02;;;;;;;0.50;0.50;;;;;;;9.04;100.00;101895.47;5072817;28;20079;-74
2023/01/22 02:35:28;;;;;;;0.63;0.63;;;;;;;9.07;100.00;101892.53;5056223;28;20028;-74
2023/01/22 02:37:53;;;;;;;1.08;0.70;;;;;;;9.08;100.00;101890.72;5056107;28;20040;-74
2023/01/22 02:40:19;;;;;;;0.80;0.80;;;;;;;9.11;100.00;101888.59;5056169;28;20033;-74
2023/01/22 02:42:45;;;;;;;0.40;0.40;;;;;;;9.12;100.00;101892.97;5072871;28;20036;-74
2023/01/22 02:45:10;;;;;;;0.50;0.50;;;;;;;9.10;100.00;101892.25;5072635;28;20028;-74
2023/01/22 02:47:36;;;;;;;0.40;0.40;;;;;;;9.16;100.00;101915.00;5055929;28;20042;-74
2023/01/22 02:50:03;;;;;;;0.40;0.40;;;;;;;9.01;100.00;101895.75;5072584;28;20028;-74
2023/01/22 02:52:29;;;;;;;0.40;0.40;;;;;;;9.14;100.00;101917.81;5072526;28;20044;-75
2023/01/22 02:54:55;;;;;;;0.50;0.50;;;;;;;9.16;100.00;101901.59;5056068;28;20032;-75
2023/01/22 02:57:21;;;;;;;0.50;0.50;;;;;;;9.14;100.00;101888.31;5072594;28;20135;-74
2023/01/22 02:59:46;;;;;;;0.43;0.43;;;;;;;9.14;100.00;101876.72;5072568;28;20116;-74
2023/01/22 03:02:12;;;;;;;0.40;0.40;;;;;;;9.08;100.00;101855.84;5055907;28;20050;-74
2023/01/22 03:04:38;;;;;;;0.50;0.50;;;;;;;9.08;100.00;101847.78;5072023;28;20029;-75
2023/01/22 03:07:03;;;;;;;0.40;0.40;;;;;;;9.06;100.00;101847.91;5055728;28;20038;-75
2023/01/22 03:09:29;;;;;;;0.50;0.50;;;;;;;9.06;100.00;101845.22;5072333;28;20024;-75
2023/01/22 03:11:55;;;;;;;0.50;0.50;;;;;;;8.97;100.00;101846.91;5072226;28;20064;-75
2023/01/22 03:22:34;;;;;;;0.40;0.40;;;;;;;8.92;100.00;101904.66;5071928;28;20033;-75
2023/01/22 03:25:03;;;;;;;0.40;0.40;;;;;;;8.91;100.00;101914.50;5056147;28;20054;-74
2023/01/22 03:27:30;;;;;;;0.40;0.40;;;;;;;8.89;100.00;101921.88;5055482;28;20483;-75
2023/01/22 03:29:57;;;;;;;0.43;0.43;;;;;;;8.89;100.00;101919.19;5039071;28;20043;-75
2023/01/22 03:32:23;;;;;;;0.40;0.40;;;;;;;8.90;100.00;101928.91;5074705;28;20059;-75
2023/01/22 03:34:48;;;;;;;0.40;0.40;;;;;;;8.91;100.00;101925.25;5059515;28;20533;-75
2023/01/22 03:37:14;;;;;;;0.40;0.40;;;;;;;8.91;100.00;101914.50;5043147;28;20082;-75
2023/01/22 03:39:40;;;;;;;0.40;0.40;;;;;;;8.93;100.00;101909.03;5076154;28;20471;-75
2023/01/22 03:42:07;;;;;;;0.40;0.40;;;;;;;8.93;100.00;101900.97;5076134;28;20032;-75
2023/01/22 03:44:32;;;;;;;0.40;0.40;;;;;;;8.93;100.00;101911.69;5076231;28;20036;-74
2023/01/22 03:46:58;;;;;;;0.40;0.40;;;;;;;8.90;100.00;101907.47;5059187;28;20028;-75
2023/01/22 03:49:24;;;;;;;0.40;0.40;;;;;;;8.93;100.00;101907.19;5059331;28;20383;-75
2023/01/22 03:51:49;;;;;;;0.40;0.40;;;;;;;8.96;100.00;101908.75;5059099;28;20025;-75
2023/01/22 03:54:15;;;;;;;0.40;0.40;;;;;;;8.95;100.00;101909.72;5076728;28;20032;-75
2023/01/22 03:56:42;;;;;;;0.40;0.40;;;;;;;8.95;100.00;101904.38;5075499;28;20372;-75
2023/01/22 03:59:09;;;;;;;0.50;0.50;;;;;;;8.93;100.00;101893.75;5042405;28;20060;-75
2023/01/22 04:01:34;;;;;;;0.50;0.50;;;;;;;8.91;100.00;101900.25;5042670;28;20040;-74
2023/01/22 04:04:00;;;;;;;0.40;0.40;;;;;;;8.92;100.00;101893.91;5075273;28;20051;-76
2023/01/22 04:06:26;;;;;;;0.40;0.40;;;;;;;8.94;100.00;101897.28;5042447;28;20044;-75
2023/01/22 04:08:53;;;;;;;0.40;0.40;;;;;;;8.95;100.00;101901.69;5058769;28;20024;-75
2023/01/22 04:11:20;;;;;;;0.45;0.45;;;;;;;8.93;100.00;101892.94;5075073;28;20382;-75
2023/01/22 04:13:46;;;;;;;0.40;0.40;;;;;;;8.94;100.00;101899.97;5042361;28;20526;-75
2023/01/22 04:16:13;;;;;;;0.40;0.40;;;;;;;8.92;100.00;101891.25;5075516;28;20068;-75
2023/01/22 04:18:40;;;;;;;0.50;0.50;;;;;;;8.93;100.00;101901.81;5058914;28;20498;-75
2023/01/22 04:21:06;;;;;;;0.40;0.40;;;;;;;8.94;100.00;101900.81;5058433;28;20028;-76
2023/01/22 04:23:31;;;;;;;0.40;0.40;;;;;;;8.93;100.00;101898.28;5074937;28;20370;-76
2023/01/22 04:25:57;;;;;;;0.30;0.30;;;;;;;8.94;100.00;101898.13;5058744;28;20029;-75
2023/01/22 04:28:22;;;;;;;0.40;0.40;;;;;;;8.91;100.00;101905.63;5075452;28;20036;-75
2023/01/22 04:30:50;;;;;;;0.40;0.40;;;;;;;8.91;100.00;101911.81;5042014;28;20036;-73
2023/01/22 04:33:16;;;;;;;0.40;0.40;;;;;;;8.87;100.00;101897.00;5058503;28;20040;-75
2023/01/22 04:35:41;;;;;;;0.40;0.40;;;;;;;8.90;100.00;101896.72;5076266;28;20025;-75
2023/01/22 04:38:10;;;;;;;0.30;0.30;;;;;;;8.83;100.00;101886.69;5074838;28;20063;-75
2023/01/22 04:40:36;;;;;;;0.40;0.40;;;;;;;8.89;100.00;101894.16;5041820;28;20127;-75
2023/01/22 04:43:06;;;;;;;0.40;0.40;;;;;;;8.90;100.00;101893.19;5074873;28;20030;-75
2023/01/22 04:45:32;;;;;;;0.40;0.40;;;;;;;8.91;100.00;101902.94;5058487;28;20089;-75
2023/01/22 04:47:58;;;;;;;0.40;0.40;;;;;;;8.91;100.00;101900.25;5074940;28;20024;-75
2023/01/22 04:50:26;;;;;;;0.40;0.40;;;;;;;8.89;100.00;101899.53;5058390;28;20043;-75
2023/01/22 04:52:53;;;;;;;0.40;0.40;;;;;;;8.92;100.00;101904.66;5041670;28;20036;-75
2023/01/22 04:55:20;;;;;;;0.40;0.40;;;;;;;8.91;100.00;101908.31;5058243;28;20123;-75
2023/01/22 04:57:45;;;;;;;0.40;0.40;;;;;;;8.84;100.00;101899.09;5058042;28;20488;-74
2023/01/22 05:00:12;;;;;;;0.40;0.40;;;;;;;8.90;100.00;101907.47;5074580;28;20024;-74
2023/01/22 05:02:38;;;;;;;0.40;0.40;;;;;;;8.91;100.00;101913.66;5041512;28;20036;-74
2023/01/22 05:05:05;;;;;;;0.40;0.40;;;;;;;8.88;100.00;101905.91;5058019;28;20043;-74
2023/01/22 05:07:31;;;;;;;0.40;0.40;;;;;;;8.89;100.00;101907.56;5057825;28;20040;-74
2023/01/22 05:09:56;;;;;;;0.40;0.40;;;;;;;8.89;100.00;101902.22;5074573;28;20047;-74
2023/01/22 05:12:22;;;;;;;0.40;0.40;;;;;;;8.90;100.00;101904.78;5057914;28;20036;-74
2023/01/22 05:14:48;;;;;;;0.40;0.40;;;;;;;8.89;100.00;101905.78;5075599;28;20032;-74
2023/01/22 05:17:15;;;;;;;0.40;0.40;;;;;;;8.95;100.00;101915.09;5074301;28;20459;-75
2023/01/22 05:19:41;;;;;;;0.40;0.40;;;;;;;8.91;100.00;101903.78;5037796;28;20050;-75
2023/01/22 05:22:07;;;;;;;0.40;0.40;;;;;;;8.96;100.00;101912.25;5057591;28;20037;-74
2023/01/22 05:24:33;;;;;;;0.30;0.30;;;;;;;8.99;100.00;101914.66;5074362;28;20436;-74
2023/01/22 05:26:58;;;;;;;0.40;0.40;;;;;;;9.00;100.00;101905.66;5073755;28;20024;-74
2023/01/22 05:29:25;;;;;;;0.40;0.40;;;;;;;9.00;100.00;101910.19;5074233;28;20039;-74
2023/01/22 05:31:52;;;;;;;0.45;0.45;;;;;;;9.02;100.00;101910.88;5073901;28;20073;-74
2023/01/22 05:34:18;;;;;;;0.40;0.40;;;;;;;9.00;100.00;101902.13;5074031;28;20032;-75
2023/01/22 05:36:44;;;;;;;0.40;0.40;;;;;;;8.98;100.00;101899.56;5057271;28;20386;-74
2023/01/22 05:39:12;;;;;;;0.40;0.40;;;;;;;9.01;100.00;101909.19;5057407;28;20032;-74
2023/01/22 05:41:37;;;;;;;0.40;0.40;;;;;;;9.02;100.00;101910.88;5075074;28;20032;-75
2023/01/22 05:44:03;;;;;;;0.40;0.40;;;;;;;9.05;100.00;101910.63;5073526;28;20040;-75
2023/01/22 05:46:29;;;;;;;0.40;0.40;;;;;;;9.01;100.00;101912.69;5057139;28;20043;-75
2023/01/22 05:48:56;;;;;;;0.40;0.40;;;;;;;9.04;100.00;101908.91;5073388;28;20025;-75
2023/01/22 05:51:22;;;;;;;0.40;0.40;;;;;;;9.10;100.00;101911.03;5040583;28;20425;-74
2023/01/22 05:53:48;;;;;;;0.40;0.40;;;;;;;9.07;100.00;101919.34;5040244;28;20090;-74
2023/01/22 05:56:14;;;;;;;0.40;0.40;;;;;;;9.06;100.00;101923.03;5073122;28;20028;-75
2023/01/22 05:58:39;;;;;;;0.40;0.40;;;;;;;9.05;100.00;101921.34;5074891;28;20060;-74
2023/01/22 06:01:05;;;;;;;0.40;0.40;;;;;;;9.11;100.00;101933.34;5073225;28;20060;-74
2023/01/22 06:03:31;;;;;;;0.40;0.40;;;;;;;9.11;100.00;101928.84;5073176;28;20047;-74
2023/01/22 06:06:01;;;;;;;0.40;0.40;;;;;;;9.11;100.00;101928.00;5073439;28;20028;-74
2023/01/22 06:08:27;;;;;;;0.30;0.30;;;;;;;9.04;100.00;101916.94;5073160;28;20035;-74
2023/01/22 06:11:04;;;;;;;0.40;0.40;;;;;;;9.13;100.00;101934.03;5073177;28;20032;-74
2023/01/22 06:13:33;;;;;;;0.40;0.40;;;;;;;9.08;100.00;101906.81;5039937;28;20115;-74
2023/01/22 06:15:59;;;;;;;0.40;0.40;;;;;;;9.13;100.00;101916.13;5040335;28;20036;-74
2023/01/22 06:18:25;;;;;;;0.40;0.40;;;;;;;9.17;100.00;101922.06;5040182;28;20032;-74
2023/01/22 06:20:51;;;;;;;0.32;0.32;;;;;;;9.18;100.00;101930.00;5040149;28;20033;-75
2023/01/22 06:23:17;;;;;;;0.30;0.30;;;;;;;9.19;100.00;101917.41;5056426;28;20033;-75
2023/01/22 06:25:43;;;;;;;0.40;0.40;;;;;;;9.18;100.00;101926.44;5056345;28;20029;-75
2023/01/22 06:28:09;;;;;;;0.50;0.50;;;;;;;9.12;100.00;101927.84;5056307;28;20103;-74
2023/01/22 06:30:35;;;;;;;0.50;0.50;;;;;;;9.00;100.00;101910.19;5073990;28;20028;-74
2023/01/22 06:33:01;;;;;;;0.40;0.40;;;;;;;8.95;100.00;101915.09;5039563;28;20427;-74
2023/01/22 06:35:26;;;;;;;0.40;0.40;;;;;;;8.96;100.00;101928.34;5072749;28;20067;-74
2023/01/22 06:37:52;;;;;;;0.40;0.40;;;;;;;8.98;100.00;101933.59;5073000;28;20033;-74
2023/01/22 06:40:18;;;;;;;0.40;0.40;;;;;;;8.93;100.00;101920.59;5039584;28;20077;-74
2023/01/22 06:42:43;;;;;;;0.40;0.40;;;;;;;8.98;100.00;101931.75;5056090;28;20498;-74
2023/01/22 06:45:09;;;;;;;0.50;0.50;;;;;;;8.97;100.00;101930.06;5055733;28;20028;-74
2023/01/22 06:47:35;;;;;;;0.40;0.40;;;;;;;8.98;100.00;101925.56;5072304;28;20025;-74
2023/01/22 06:50:01;;;;;;;0.30;0.30;;;;;;;8.95;100.00;101929.34;5055961;28;20039;-74
2023/01/22 06:52:26;;;;;;;0.40;0.40;;;;;;;8.96;100.00;101930.19;5039681;28;20383;-74
2023/01/22 06:54:52;;;;;;;0.40;0.40;;;;;;;8.99;100.00;101929.91;5055996;28;20032;-74
2023/01/22 06:57:18;;;;;;;0.40;0.40;;;;;;;8.99;100.00;101927.25;5039230;28;20387;-75
2023/01/22 06:59:43;;;;;;;0.50;0.50;;;;;;;8.95;100.00;101915.09;5072292;28;20501;-74
2023/01/22 07:02:17;;;;;;;0.40;0.40;;;;;;;8.97;100.00;101918.47;5055562;28;20078;-74
2023/01/22 07:04:42;;;;;;;;;;;;;;;8.97;100.00;101923.84;5039823;28;20021;-74
2023/01/22 07:07:08;;;;;;;0.40;0.40;;;;;;;8.96;100.00;101922.16;5071403;28;20454;-74
2023/01/22 07:09:34;;;;;;;0.40;0.40;;;;;;;8.92;100.00;101920.75;5055697;28;20131;-75
2023/01/22 07:12:00;;;;;;;0.40;0.40;;;;;;;8.98;100.00;101928.22;5055882;28;20196;-75
2023/01/22 07:14:26;;;;;;;0.40;0.40;;;;;;;9.00;100.00;101935.16;5056114;28;20033;-74
2023/01/22 07:16:52;;;;;;;0.40;0.40;;;;;;;9.01;100.00;101936.00;5073589;28;20028;-74
2023/01/22 07:19:18;;;;;;;0.50;0.50;;;;;;;9.04;100.00;101935.72;5072400;28;20138;-75
2023/01/22 07:21:43;;;;;;;0.40;0.40;;;;;;;9.01;100.00;101934.16;5055695;28;20044;-74
2023/01/22 07:24:10;;;;;;;0.40;0.40;;;;;;;9.05;100.00;101941.94;5072277;28;20378;-74
2023/01/22 07:26:37;;;;;;;0.50;0.50;;;;;;;9.05;100.00;101942.81;5072011;28;20107;-74
2023/01/22 07:29:03;;;;;;;0.40;0.40;;;;;;;9.06;100.00;101951.69;5072161;28;20128;-74
2023/01/22 07:31:29;;;;;;;0.50;0.50;;;;;;;9.06;100.00;101949.03;5073104;28;20051;-74
2023/01/22 07:33:55;;;;;;;0.40;0.40;;;;;;;9.11;100.00;101954.81;5055522;28;20123;-74
2023/01/22 07:36:20;;;;;;;0.40;0.40;;;;;;;9.06;100.00;101946.34;5071768;28;20028;-74
2023/01/22 07:38:46;;;;;;;0.40;0.40;;;;;;;9.08;100.00;101947.06;5073044;28;20085;-74
2023/01/22 07:41:12;;;;;;;0.40;0.40;;;;;;;9.08;100.00;101949.72;5055650;28;20127;-75
2023/01/22 07:43:38;;;;;;;0.40;0.40;;;;;;;9.12;100.00;101954.66;5055388;28;20046;-74
2023/01/22 07:46:05;;;;;;;0.40;0.40;;;;;;;9.13;100.00;101950.16;5055749;28;20032;-75
2023/01/22 07:48:31;;;;;;;0.40;0.40;;;;;;;9.13;100.00;101942.97;5055342;28;20028;-74
2023/01/22 07:51:01;;;;;;;0.40;0.40;;;;;;;9.15;100.00;101949.03;5055512;28;20486;-75
2023/01/22 07:53:27;;;;;;;0.40;0.40;;;;;;;9.12;100.00;101943.09;5038920;28;20036;-74
2023/01/22 07:55:55;;;;;;;0.40;0.40;;;;;;;9.10;100.00;101939.69;5071757;28;20386;-75
2023/01/22 07:58:21;;;;;;;0.40;0.40;;;;;;;9.08;100.00;101936.31;5071723;28;20043;-75
2023/01/22 08:00:47;;;;;;;0.45;0.45;;;;;;;9.07;100.00;101939.97;5071788;28;20386;-74
2023/01/22 08:03:13;;;;;;;0.40;0.40;;;;;;;9.04;100.00;101927.69;5038249;28;20029;-75
2023/01/22 08:05:40;;;;;;;0.40;0.40;;;;;;;9.11;100.00;101936.03;5038307;28;20375;-75
2023/01/22 08:08:12;;;;;;;0.40;0.40;;;;;;;9.10;100.00;101937.00;5071750;28;20032;-74
2023/01/22 08:10:38;;;;;;;0.30;0.30;;;;;;;9.06;100.00;101938.28;5054717;28;20044;-74
2023/01/22 08:13:03;;;;;;;0.40;0.40;;;;;;;9.08;100.00;101947.06;5071551;28;20540;-75
2023/01/22 08:15:30;;;;;;;0.40;0.40;;;;;;;9.02;100.00;101935.88;5054727;28;20043;-75
2023/01/22 08:17:55;;;;;;;0.40;0.40;;;;;;;8.94;100.00;101929.47;5040067;28;20093;-75
2023/01/22 08:20:21;;;;;;;0.40;0.40;;;;;;;9.03;100.00;101944.78;5075132;28;20029;-75
2023/01/22 08:22:47;;;;;;;0.40;0.40;;;;;;;9.01;100.00;101944.91;5058838;28;20070;-75
2023/01/22 08:25:13;;;;;;;0.50;0.50;;;;;;;8.99;100.00;101954.06;5075023;28;20067;-75
2023/01/22 08:27:39;;;;;;;0.40;0.40;;;;;;;8.99;100.00;101946.00;5075051;28;20163;-75
2023/01/22 08:30:06;;;;;;;0.40;0.40;;;;;;;9.02;100.00;101943.06;5042400;28;20039;-75
2023/01/22 08:32:32;;;;;;;0.40;0.40;;;;;;;9.05;100.00;101958.03;5075120;28;20056;-75
2023/01/22 08:34:58;;;;;;;0.40;0.40;;;;;;;9.05;100.00;101964.28;5058395;28;20382;-75
2023/01/22 08:37:23;;;;;;;0.40;0.40;;;;;;;9.05;100.00;101964.28;5074788;28;20128;-75
2023/01/22 08:39:49;;;;;;;0.40;0.40;;;;;;;9.02;100.00;101959.16;5058199;28;20036;-75
2023/01/22 08:42:15;;;;;;;0.40;0.40;;;;;;;8.97;100.00;101964.06;5074274;28;20024;-75
2023/01/22 08:44:41;;;;;;;0.40;0.40;;;;;;;9.06;100.00;101981.22;5074813;28;20421;-75
2023/01/22 08:47:06;;;;;;;0.40;0.40;;;;;;;9.04;100.00;101989.38;5058064;28;20040;-75
2023/01/22 08:49:32;;;;;;;0.40;0.40;;;;;;;9.06;100.00;101995.47;5058151;28;20060;-75
2023/01/22 08:51:58;;;;;;;0.40;0.40;;;;;;;9.03;100.00;101995.75;5074734;28;20107;-75
2023/01/22 08:54:25;;;;;;;0.40;0.40;;;;;;;9.07;100.00;101999.00;5057998;28;20141;-75
2023/01/22 08:56:50;;;;;;;0.40;0.40;;;;;;;9.10;100.00;102012.97;5074349;28;20119;-75
2023/01/22 08:59:16;;;;;;;0.40;0.40;;;;;;;9.11;100.00;102006.66;5074809;28;20120;-75
2023/01/22 09:01:42;;;;;;;0.40;0.40;;;;;;;9.16;100.00;102012.47;5058176;28;20493;-75
2023/01/22 09:04:08;;;;;;;0.40;0.40;;;;;;;9.10;100.00;101988.00;5075542;28;20382;-75
2023/01/22 09:06:35;;;;;;;0.40;0.40;;;;;;;9.26;100.00;102017.84;5057882;28;20478;-75
2023/01/22 09:09:01;;;;;;;0.40;0.40;;;;;;;9.31;100.00;102006.69;5040938;28;20543;-75
2023/01/22 09:11:30;;;;;;;0.40;0.40;;;;;;;9.32;100.00;102003.06;5074146;28;20037;-75
2023/01/22 09:13:57;;;;;;;0.40;0.40;;;;;;;9.45;100.00;102014.38;5057739;28;20478;-75
2023/01/22 09:16:23;;;;;;;0.40;0.40;;;;;;;9.52;100.00;102020.03;5057447;28;20032;-75
2023/01/22 09:18:49;;;;;;;0.50;0.50;;;;;;;9.54;100.00;102024.28;5040716;28;20091;-75
2023/01/22 09:21:14;;;;;;;0.40;0.40;;;;;;;9.62;100.00;102026.28;5073742;28;20425;-75
2023/01/22 09:23:40;;;;;;;0.40;0.40;;;;;;;9.63;100.00;102034.22;5041007;28;20380;-75
2023/01/22 09:26:06;;;;;;;0.40;0.40;;;;;;;9.67;100.00;102027.56;5073718;28;20028;-75
2023/01/22 09:28:32;;;;;;;0.40;0.40;;;;;;;9.69;100.00;102033.66;5073756;28;20052;-75
2023/01/22 09:30:58;;;;;;;0.40;0.40;;;;;;;9.75;100.00;102042.13;5056325;28;20078;-74
2023/01/22 09:33:23;;;;;;;0.40;0.40;;;;;;;9.75;100.00;102032.25;5057269;28;20063;-75
2023/01/22 09:35:49;;;;;;;0.40;0.40;;;;;;;9.80;100.00;102040.72;5073635;28;20028;-76
2023/01/22 09:38:15;;;;;;;0.40;0.40;;;;;;;9.81;100.00;102036.19;5057096;28;20178;-75
2023/01/22 09:40:47;;;;;;;0.40;0.40;;;;;;;9.84;100.00;102035.91;5073901;28;20040;-75
2023/01/22 09:43:36;;;;;;;0.40;0.40;;;;;;;9.88;100.00;102040.88;5040689;28;20136;-75
2023/01/22 09:46:07;;;;;;;0.40;0.40;;;;;;;9.89;100.00;102041.72;5072795;28;20566;-75
2023/01/22 09:49:13;;;;;;;0.50;0.50;;;;;;;9.97;100.00;102044.56;5074505;28;20036;-75
2023/01/22 09:51:39;;;;;;;0.40;0.40;;;;;;;10.02;100.00;102057.56;5073660;28;20032;-75
2023/01/22 09:54:07;;;;;;;0.40;0.40;;;;;;;10.05;100.00;102051.91;5057043;28;20086;-75
2023/01/22 09:56:42;;;;;;;0.40;0.40;;;;;;;10.06;100.00;102041.03;5072650;28;20036;-78
2023/01/22 09:59:19;;;;;;;0.40;0.40;;;;;;;10.05;100.00;102044.69;5040077;28;20110;-78
2023/01/22 10:01:46;;;;;;;0.40;0.40;;;;;;;10.06;100.00;102046.41;5073327;28;20036;-81
2023/01/22 10:04:24;;;;;;;0.40;0.40;;;;;;;10.13;100.00;102047.56;5056640;28;20052;-80
2023/01/22 10:06:51;;;;;;;0.50;0.50;;;;;;;10.12;100.00;102031.56;5073423;28;20029;-80
2023/01/22 10:09:19;;;;;;;0.40;0.40;;;;;;;10.18;100.00;102038.19;5073231;28;20143;-80
2023/01/22 10:11:49;;;;;;;0.40;0.40;;;;;;;10.27;100.00;102050.81;5073093;28;20043;-80
2023/01/22 10:14:19;;;;;;;0.40;0.40;;;;;;;10.36;100.00;102057.19;5056824;28;20028;-80
2023/01/22 10:16:45;;;;;;;0.40;0.40;;;;;;;10.38;100.00;102066.81;5073212;28;20033;-80
2023/01/22 10:19:26;;;;;;;0.40;0.40;;;;;;;10.42;100.00;102062.84;5073108;28;20032;-80
2023/01/22 10:22:00;;;;;;;0.30;0.30;;;;;;;10.43;100.00;102075.31;5073020;28;20032;-80
2023/01/22 10:24:26;;;;;;;;;;;;;;;10.45;100.00;102067.06;5056941;28;20075;-80
2023/01/22 10:26:53;;;;;;;0.40;0.40;;;;;;;10.41;100.00;102063.84;5072993;28;19935;-80
2023/01/22 10:29:33;;;;;;;0.50;0.50;;;;;;;10.43;100.00;102071.78;5072885;28;20033;-80
2023/01/22 10:32:05;;;;;;;0.40;0.40;;;;;;;10.43;100.00;102069.09;5073821;28;20020;-80
2023/01/22 10:34:34;;;;;;;0.50;0.50;;;;;;;10.49;100.00;102085.47;5072908;28;20029;-80
2023/01/22 10:37:10;;;;;;;0.50;0.50;;;;;;;10.51;100.00;102070.06;5072919;28;20090;-80
2023/01/22 10:39:43;;;;;;;0.40;0.40;;;;;;;10.66;100.00;102081.19;5073776;28;20035;-80
2023/01/22 10:42:17;;;;;;;0.50;0.50;;;;;;;10.68;100.00;102073.00;5072679;28;20467;-80
2023/01/22 10:44:43;;;;;;;0.55;0.55;;;;;;;10.68;100.00;102081.06;5039514;28;20388;-81
2023/01/22 10:47:22;;;;;;;0.50;0.50;;;;;;;10.74;100.00;102081.34;5072704;28;20021;-80
2023/01/22 10:49:59;;;;;;;0.98;0.90;;;;;;;10.84;100.00;102075.09;5072457;28;20471;-81
2023/01/22 10:52:40;;;;;;;0.60;0.60;;;;;;;10.90;100.00;102069.13;5039593;28;20136;-81
2023/01/22 10:55:25;;;;;;;0.60;0.60;;;;;;;11.05;100.00;102064.97;5039355;28;20123;-81
2023/01/22 10:57:54;;;;;;;0.50;0.50;;;;;;;11.25;100.00;102062.22;5039589;28;20032;-81
2023/01/22 11:00:32;;;;;;;0.82;0.80;;;;;;;11.48;100.00;102079.66;5072746;28;20138;-81
2023/01/22 11:02:58;;;;;;;1.42;0.85;;;;;;;11.66;100.00;102082.41;5056045;28;20482;-81
2023/01/22 11:05:27;;;;;;;0.70;0.70;;;;;;;11.70;100.00;102062.25;5056090;28;20032;-81
2023/01/22 11:07:57;;;;;;;0.82;0.80;;;;;;;11.81;100.00;102067.44;5039313;28;20032;-81
2023/01/22 11:10:42;;;;;;;0.85;0.73;;;;;;;12.04;100.00;102092.13;5039421;28;20025;-80
2023/01/22 11:13:17;;;;;;;1.15;0.80;;;;;;;12.09;100.00;102097.06;5055967;28;20041;-80
2023/01/22 11:15:56;;;;;;;0.60;0.60;;;;;;;11.99;100.00;102088.22;5072531;28;20078;-80
2023/01/22 11:18:32;;;;;;;3.42;0.93;;;;;;;11.85;100.00;102078.75;5055482;28;20032;-79
2023/01/22 11:20:59;;;;;;;1.13;0.80;;;;;;;11.75;100.00;102073.44;5072270;28;20024;-80
2023/01/22 11:23:53;;;;;;;1.08;0.98;;;;;;;11.82;100.00;102085.28;5055371;28;20025;-79
2023/01/22 11:26:33;;;;;;;1.48;0.93;;;;;;;11.97;100.00;102092.91;5055506;28;20107;-81
2023/01/22 11:29:25;;;;;;;1.30;0.90;;;;;;;12.07;100.00;102085.59;5073091;28;20025;-78
2023/01/22 11:32:21;;;;;;;1.15;0.82;;;;;;;12.22;100.00;102089.44;5071944;28;20085;-78
2023/01/22 11:34:57;;;;;;;2.63;0.95;;;;;;;12.21;100.00;102085.06;5072205;28;20022;-78
2023/01/22 11:37:41;;;;;;;0.60;0.60;;;;;;;12.24;100.00;102084.72;5038832;28;20037;-78